Time;durP1;ratioP1;P1;durP2;ratioP2;P2;SDS_P1;SDS_P2;PMS_P1;PMS_P2;Temp;Humidity;BMP_temperature;BMP_pressure;BME280_temperature;BME280_humidity;BME280_pressure;Samples;Min_cycle;Max_cycle;Signal;HPM_P1;HPM_P2
2023/01/22 00:00:37;;;;;;;20.05;13.85;;;;;;;2.95;75.91;101373.44;5030709;28;20451;-84
2023/01/22 00:03:04;;;;;;;20.27;13.43;;;;;;;2.95;75.82;101378.63;5030895;28;20053;-84
2023/01/22 00:05:30;;;;;;;18.77;12.77;;;;;;;2.96;75.41;101384.72;5012915;28;20061;-84
2023/01/22 00:07:57;;;;;;;18.40;12.65;;;;;;;2.96;75.38;101376.91;5030631;28;20049;-84
2023/01/22 00:10:23;;;;;;;18.27;12.15;;;;;;;2.95;75.57;101370.84;5030191;28;20061;-84
2023/01/22 00:12:50;;;;;;;18.20;12.02;;;;;;;2.96;75.20;101379.53;5012907;28;20069;-84
2023/01/22 00:15:16;;;;;;;18.50;11.93;;;;;;;2.97;75.12;101376.94;5030445;28;20061;-84
2023/01/22 00:17:43;;;;;;;16.50;11.18;;;;;;;2.95;75.49;101362.19;5012720;28;20053;-84
2023/01/22 00:20:11;;;;;;;16.17;12.07;;;;;;;2.94;75.16;101361.31;5030666;28;20060;-84
2023/01/22 00:22:37;;;;;;;17.48;11.95;;;;;;;2.95;75.09;101350.03;5030317;28;20057;-84
2023/01/22 00:25:04;;;;;;;18.88;12.30;;;;;;;2.95;75.00;101356.97;5030303;28;20057;-84
2023/01/22 00:27:31;;;;;;;16.08;12.55;;;;;;;2.96;75.38;101363.91;5012489;28;20057;-84
2023/01/22 00:29:57;;;;;;;15.80;10.93;;;;;;;2.95;75.45;101365.63;5029994;28;20470;-84
2023/01/22 00:32:24;;;;;;;18.50;12.10;;;;;;;2.94;75.20;101356.09;5030258;28;20057;-84
2023/01/22 00:34:51;;;;;;;18.33;12.77;;;;;;;2.95;75.18;101352.63;5012493;28;20075;-84
2023/01/22 00:37:19;;;;;;;17.00;12.05;;;;;;;2.95;75.17;101351.78;5029859;28;20626;-84
2023/01/22 00:39:45;;;;;;;16.48;12.00;;;;;;;2.95;75.40;101355.22;5029512;28;20088;-84
2023/01/22 00:42:12;;;;;;;16.88;12.25;;;;;;;2.95;75.39;101354.38;5030204;28;20075;-84
2023/01/22 00:44:38;;;;;;;18.67;12.70;;;;;;;2.94;75.12;101348.31;5029955;28;20072;-84
2023/01/22 00:47:05;;;;;;;16.50;11.80;;;;;;;2.95;75.53;101346.56;5029678;28;20411;-84
2023/01/22 00:49:31;;;;;;;16.83;12.10;;;;;;;2.94;75.32;101347.41;5012186;28;20057;-84
2023/01/22 00:51:58;;;;;;;20.55;12.63;;;;;;;2.94;74.86;101348.31;5029802;28;20057;-84
2023/01/22 00:54:24;;;;;;;20.13;12.75;;;;;;;2.95;74.96;101341.38;5029798;28;20499;-82
2023/01/22 00:56:51;;;;;;;19.95;13.18;;;;;;;2.91;74.70;101327.47;5012067;28;20049;-84
2023/01/22 00:59:17;;;;;;;16.52;11.88;;;;;;;2.93;75.27;101332.69;5030042;28;20427;-83
2023/01/22 01:01:44;;;;;;;15.65;11.70;;;;;;;2.92;75.16;101330.97;5029642;28;20435;-84
2023/01/22 01:04:10;;;;;;;19.05;11.98;;;;;;;2.91;75.19;101335.28;5029811;28;20065;-84
2023/01/22 01:06:37;;;;;;;21.38;13.65;;;;;;;2.91;75.04;101329.22;5011637;28;20053;-84
2023/01/22 01:09:04;;;;;;;17.80;12.68;;;;;;;2.92;74.99;101339.63;5029674;28;20160;-84
2023/01/22 01:11:31;;;;;;;17.17;12.75;;;;;;;2.92;75.02;101341.38;5011718;28;20157;-83
2023/01/22 01:13:59;;;;;;;18.00;13.25;;;;;;;2.91;74.73;101339.63;5029611;28;20057;-84
2023/01/22 01:16:28;;;;;;;18.10;12.95;;;;;;;2.89;75.09;101326.63;5029348;28;20053;-84
2023/01/22 01:19:06;;;;;;;19.88;13.68;;;;;;;2.87;74.86;101323.16;5029517;28;20415;-84
2023/01/22 01:21:33;;;;;;;18.98;12.57;;;;;;;2.89;75.02;101329.22;5029496;28;20061;-84
2023/01/22 01:23:59;;;;;;;20.08;13.15;;;;;;;2.89;75.19;101324.03;5011798;28;20511;-84
2023/01/22 01:26:27;;;;;;;21.45;13.52;;;;;;;2.89;75.34;101333.56;5029246;28;20057;-84
2023/01/22 01:28:53;;;;;;;17.92;13.25;;;;;;;2.88;75.14;101332.69;5029299;28;20053;-84
2023/01/22 01:31:23;;;;;;;20.00;13.77;;;;;;;2.88;74.79;101332.69;5029038;28;20454;-84
2023/01/22 01:33:49;;;;;;;19.92;13.23;;;;;;;2.86;75.29;101342.22;5012031;28;20067;-84
2023/01/22 01:36:22;;;;;;;17.05;12.40;;;;;;;2.83;74.27;101332.69;5029493;28;20400;-84
2023/01/22 01:39:09;;;;;;;18.13;12.30;;;;;;;2.85;74.94;101320.53;5029162;28;20088;-84
2023/01/22 01:41:35;;;;;;;18.35;12.18;;;;;;;2.84;75.01;101325.75;5029034;28;20511;-84
2023/01/22 01:44:13;;;;;;;18.27;12.20;;;;;;;2.80;73.95;101324.03;5029062;28;20069;-83
2023/01/22 01:46:43;;;;;;;18.25;13.02;;;;;;;2.81;74.97;101318.78;5028831;28;20492;-84
2023/01/22 01:49:16;;;;;;;18.60;12.88;;;;;;;2.79;73.97;101325.75;5029330;28;20408;-83
2023/01/22 01:51:44;;;;;;;19.55;12.82;;;;;;;2.80;75.12;101318.81;5030705;28;20112;-84
2023/01/22 01:54:11;;;;;;;17.73;12.60;;;;;;;2.79;75.04;101323.16;5033185;28;20060;-84
2023/01/22 01:56:49;;;;;;;17.70;11.93;;;;;;;2.77;74.06;101309.28;5015021;28;20412;-84
2023/01/22 01:59:18;;;;;;;17.48;12.43;;;;;;;2.79;75.02;101311.88;5033208;28;20057;-84
2023/01/22 02:01:48;;;;;;;17.10;12.15;;;;;;;2.79;75.00;101309.25;5015311;28;20053;-84
2023/01/22 02:04:15;;;;;;;19.23;12.25;;;;;;;2.80;75.51;101311.88;5032983;28;20512;-84
2023/01/22 02:06:41;;;;;;;21.38;12.40;;;;;;;2.80;75.41;101311.03;5014838;28;20396;-84
2023/01/22 02:09:08;;;;;;;20.55;12.63;;;;;;;2.80;75.22;101305.81;5032961;28;20061;-84
2023/01/22 02:11:35;;;;;;;18.42;12.98;;;;;;;2.79;75.59;101294.53;5032485;28;20053;-83
2023/01/22 02:14:05;;;;;;;17.08;11.82;;;;;;;2.78;75.06;101298.00;5032906;28;20053;-84
2023/01/22 02:16:32;;;;;;;19.08;12.68;;;;;;;2.79;75.16;101301.47;5032693;28;20081;-84
2023/01/22 02:18:59;;;;;;;17.30;12.55;;;;;;;2.79;75.31;101297.13;5033081;28;20057;-84
2023/01/22 02:21:40;;;;;;;18.63;12.68;;;;;;;2.76;74.04;101299.72;5032963;28;20496;-83
2023/01/22 02:24:10;;;;;;;18.92;12.60;;;;;;;2.77;74.92;101288.50;5032516;28;20490;-84
2023/01/22 02:26:36;;;;;;;21.88;13.25;;;;;;;2.80;75.16;101298.03;5032347;28;20420;-83
2023/01/22 02:29:06;;;;;;;17.30;11.70;;;;;;;2.78;74.90;101303.22;5014976;28;20474;-83
2023/01/22 02:31:35;;;;;;;21.85;12.60;;;;;;;2.77;75.17;101292.81;5032342;28;20566;-84
2023/01/22 02:34:01;;;;;;;17.75;13.25;;;;;;;2.76;75.38;101291.94;5032434;28;20152;-84
2023/01/22 02:36:32;;;;;;;16.30;12.02;;;;;;;2.76;75.62;101293.69;5032272;28;20053;-84
2023/01/22 02:38:58;;;;;;;17.13;11.75;;;;;;;2.76;75.54;101293.69;5032565;28;20064;-84
2023/01/22 02:41:26;;;;;;;17.23;12.55;;;;;;;2.77;75.56;101295.41;5032293;28;20056;-84
2023/01/22 02:43:52;;;;;;;19.45;12.70;;;;;;;2.77;75.61;101288.50;5014590;28;20057;-84
2023/01/22 02:46:19;;;;;;;17.58;11.23;;;;;;;2.77;75.32;101291.09;5031891;28;20519;-84
2023/01/22 02:48:46;;;;;;;20.38;11.57;;;;;;;2.77;75.40;101287.59;5032124;28;20057;-83
2023/01/22 02:51:12;;;;;;;16.42;11.60;;;;;;;2.76;75.23;101291.09;5031970;28;20049;-84
2023/01/22 02:53:39;;;;;;;17.52;11.75;;;;;;;2.76;75.55;101294.53;5032179;28;20064;-84
2023/01/22 02:56:07;;;;;;;17.50;12.52;;;;;;;2.73;75.10;101287.59;5031921;28;20503;-84
2023/01/22 02:58:34;;;;;;;16.42;11.73;;;;;;;2.74;75.18;101280.69;5014181;28;20060;-84
2023/01/22 03:01:22;;;;;;;18.92;11.75;;;;;;;2.70;74.56;101282.38;5031940;28;20276;-84
2023/01/22 03:03:53;;;;;;;18.20;12.13;;;;;;;2.72;75.44;101280.66;5031384;28;20053;-84
2023/01/22 03:06:22;;;;;;;19.83;12.20;;;;;;;2.72;74.99;101290.19;5031638;28;20089;-84
2023/01/22 03:08:51;;;;;;;16.58;11.80;;;;;;;2.70;75.61;101285.00;5031783;28;20058;-83
2023/01/22 03:11:18;;;;;;;16.75;11.55;;;;;;;2.70;75.07;101289.34;5013780;28;20503;-84
2023/01/22 03:22:04;;;;;;;17.25;11.38;;;;;;;2.65;75.59;101271.13;5031519;28;20068;-84
2023/01/22 03:24:30;;;;;;;14.85;11.00;;;;;;;2.65;75.39;101283.28;5031736;28;20068;-84
2023/01/22 03:26:57;;;;;;;15.90;11.32;;;;;;;2.64;75.45;101276.31;5031157;28;20053;-84
2023/01/22 03:29:23;;;;;;;16.05;11.77;;;;;;;2.65;75.54;101278.06;5031577;28;20057;-84
2023/01/22 03:31:50;;;;;;;18.33;12.05;;;;;;;2.63;75.93;101278.06;5031396;28;20057;-84
2023/01/22 03:34:19;;;;;;;18.23;11.45;;;;;;;2.63;75.71;101278.06;5031234;28;20061;-83
2023/01/22 03:36:46;;;;;;;15.48;11.02;;;;;;;2.64;75.39;101273.72;5031060;28;20053;-84
2023/01/22 03:39:12;;;;;;;18.58;11.57;;;;;;;2.64;75.50;101273.72;5031275;28;20169;-84
2023/01/22 03:41:39;;;;;;;14.50;10.60;;;;;;;2.63;75.88;101275.47;5031446;28;20049;-84
2023/01/22 03:44:08;;;;;;;17.92;11.23;;;;;;;2.63;75.85;101274.59;5031184;28;20068;-84
2023/01/22 03:46:34;;;;;;;14.73;11.20;;;;;;;2.64;75.87;101278.91;5013320;28;20053;-84
2023/01/22 03:49:01;;;;;;;15.55;10.90;;;;;;;2.63;75.98;101279.78;5013411;28;20136;-84
2023/01/22 03:51:27;;;;;;;15.38;10.88;;;;;;;2.60;76.04;101268.53;5031047;28;20061;-84
2023/01/22 03:53:54;;;;;;;14.38;11.32;;;;;;;2.60;76.14;101268.53;5013367;28;20333;-84
2023/01/22 03:56:22;;;;;;;15.50;10.55;;;;;;;2.62;75.67;101280.66;5030639;28;20111;-81
2023/01/22 03:58:49;;;;;;;16.13;11.73;;;;;;;2.63;75.87;101280.66;5030666;28;20482;-82
2023/01/22 04:01:20;;;;;;;17.77;11.23;;;;;;;2.61;75.90;101272.00;5030739;28;20057;-82
2023/01/22 04:03:47;;;;;;;16.30;11.75;;;;;;;2.62;75.64;101267.66;5030694;28;20057;-82
2023/01/22 04:06:14;;;;;;;17.55;11.85;;;;;;;2.62;75.94;101268.53;5030592;28;20064;-82
2023/01/22 04:08:43;;;;;;;16.55;11.23;;;;;;;2.62;76.14;101271.16;5012988;28;20420;-82
2023/01/22 04:11:10;;;;;;;19.02;12.25;;;;;;;2.61;75.72;101269.38;5160911;23;20069;-79
2023/01/22 04:13:39;;;;;;;15.23;10.93;;;;;;;2.62;75.86;101263.34;5030409;28;20053;-79
2023/01/22 04:16:06;;;;;;;16.40;11.82;;;;;;;2.62;76.26;101273.75;5030118;28;20404;-80
2023/01/22 04:18:33;;;;;;;20.90;11.80;;;;;;;2.63;75.89;101275.47;5030762;28;20053;-79
2023/01/22 04:20:59;;;;;;;16.30;11.63;;;;;;;2.64;75.80;101269.41;5030395;28;20053;-80
2023/01/22 04:23:26;;;;;;;17.42;12.35;;;;;;;2.63;76.20;101278.06;5030527;28;20061;-80
2023/01/22 04:25:52;;;;;;;17.40;12.57;;;;;;;2.63;76.01;101283.28;5030227;28;20049;-79
2023/01/22 04:28:19;;;;;;;14.75;11.50;;;;;;;2.64;75.89;101282.41;5030187;28;20049;-79
2023/01/22 04:30:48;;;;;;;18.30;11.35;;;;;;;2.64;76.04;101279.78;5030166;28;20065;-79
2023/01/22 04:33:14;;;;;;;17.15;11.05;;;;;;;2.64;76.18;101277.19;5012606;28;20065;-79
2023/01/22 04:35:41;;;;;;;17.20;12.00;;;;;;;2.66;75.98;101269.41;5030167;28;20061;-79
2023/01/22 04:38:11;;;;;;;15.20;11.45;;;;;;;2.64;76.11;101272.00;5029890;28;20508;-79
2023/01/22 04:40:38;;;;;;;15.48;11.65;;;;;;;2.67;76.07;101271.13;5030139;28;20053;-79
2023/01/22 04:43:06;;;;;;;14.95;11.30;;;;;;;2.67;76.07;101274.59;5030035;28;20565;-79
2023/01/22 04:45:33;;;;;;;17.73;11.30;;;;;;;2.66;75.83;101270.28;5029830;28;20081;-79
2023/01/22 04:47:59;;;;;;;15.55;11.35;;;;;;;2.67;76.38;101263.31;5029712;28;20103;-80
2023/01/22 04:50:32;;;;;;;15.85;11.10;;;;;;;2.66;75.54;101261.59;5029901;28;20084;-79
2023/01/22 04:52:59;;;;;;;16.83;10.55;;;;;;;2.66;76.08;101265.09;5030038;28;20060;-80
2023/01/22 04:55:27;;;;;;;14.80;10.10;;;;;;;2.65;76.01;101268.53;5029800;28;21329;-80
2023/01/22 04:57:55;;;;;;;13.77;10.32;;;;;;;2.65;76.05;101271.13;5029676;28;20050;-80
2023/01/22 05:00:23;;;;;;;15.63;11.32;;;;;;;2.65;76.03;101267.69;5029750;28;20069;-80
2023/01/22 05:02:54;;;;;;;17.92;11.05;;;;;;;2.65;76.38;101271.13;5029961;28;20106;-79
2023/01/22 05:05:20;;;;;;;15.27;10.40;;;;;;;2.65;75.66;101263.31;5029734;28;20115;-79
2023/01/22 05:07:46;;;;;;;15.98;10.30;;;;;;;2.65;76.24;101265.94;5029729;28;20088;-79
2023/01/22 05:10:13;;;;;;;14.88;9.82;;;;;;;2.66;76.12;101264.19;5029430;28;20053;-80
2023/01/22 05:12:39;;;;;;;14.65;10.48;;;;;;;2.66;76.03;101265.09;5029343;28;20085;-79
2023/01/22 05:15:06;;;;;;;15.18;10.70;;;;;;;2.67;76.00;101268.53;5029526;28;20053;-80
2023/01/22 05:17:49;;;;;;;;;;;;;;;2.68;75.16;101268.53;5030051;28;20054;-79
2023/01/22 05:20:15;;;;;;;11.90;8.75;;;;;;;2.71;75.77;101270.25;5029656;28;19983;-79
2023/01/22 05:22:42;;;;;;;13.63;9.27;;;;;;;2.69;75.53;101266.81;5029528;28;20057;-80
2023/01/22 05:25:09;;;;;;;13.85;10.02;;;;;;;2.66;75.87;101267.69;5029345;28;20057;-79
2023/01/22 05:27:35;;;;;;;12.45;9.43;;;;;;;2.65;76.15;101270.28;5035014;28;20057;-79
2023/01/22 05:30:03;;;;;;;13.18;10.43;;;;;;;2.64;75.83;101271.13;5036255;28;20061;-79
2023/01/22 05:32:30;;;;;;;17.33;10.82;;;;;;;2.63;75.89;101272.00;5036153;28;20057;-79
2023/01/22 05:34:56;;;;;;;15.68;9.95;;;;;;;2.62;75.77;101271.16;5035898;28;20058;-79
2023/01/22 05:37:23;;;;;;;13.43;10.35;;;;;;;2.62;75.47;101271.16;5035892;28;20060;-79
2023/01/22 05:39:49;;;;;;;15.40;10.20;;;;;;;2.60;75.97;101272.88;5036048;28;20475;-79
2023/01/22 05:42:16;;;;;;;12.70;9.48;;;;;;;2.60;76.26;101278.94;5036099;28;20081;-79
2023/01/22 05:44:42;;;;;;;12.45;9.88;;;;;;;2.59;75.68;101271.97;5031215;28;20057;-79
2023/01/22 05:47:11;;;;;;;15.52;10.32;;;;;;;2.59;75.69;101282.38;5034468;28;20408;-79
2023/01/22 05:49:38;;;;;;;14.25;10.05;;;;;;;2.60;75.68;101275.47;5035675;28;20061;-79
2023/01/22 05:52:04;;;;;;;12.43;9.55;;;;;;;2.59;76.14;101279.78;5035673;28;20064;-79
2023/01/22 05:54:31;;;;;;;15.60;10.15;;;;;;;2.60;76.38;101272.88;5035575;28;20508;-79
2023/01/22 05:56:57;;;;;;;13.88;10.15;;;;;;;2.60;75.76;101272.88;5035503;28;20053;-79
2023/01/22 05:59:24;;;;;;;13.57;10.00;;;;;;;2.59;76.28;101277.19;5035952;28;20106;-79
2023/01/22 06:01:50;;;;;;;12.82;10.02;;;;;;;2.59;76.51;101268.53;5017830;28;20649;-79
2023/01/22 06:04:16;;;;;;;14.45;10.23;;;;;;;2.59;76.51;101265.94;5035828;28;20081;-80
2023/01/22 06:06:43;;;;;;;13.55;9.63;;;;;;;2.59;75.99;101273.72;5035276;28;20127;-79
2023/01/22 06:09:11;;;;;;;15.38;9.98;;;;;;;2.57;76.43;101272.84;5035820;28;20057;-79
2023/01/22 06:11:38;;;;;;;16.83;10.18;;;;;;;2.59;76.18;101271.97;5035299;28;20057;-79
2023/01/22 06:14:05;;;;;;;14.13;10.25;;;;;;;2.59;76.55;101273.72;5017970;28;20061;-79
2023/01/22 06:16:31;;;;;;;14.90;9.20;;;;;;;2.60;76.12;101271.13;5035392;28;20061;-79
2023/01/22 06:18:57;;;;;;;12.80;9.60;;;;;;;2.60;76.75;101270.25;5035511;28;20053;-79
2023/01/22 06:21:24;;;;;;;13.80;9.25;;;;;;;2.61;75.98;101269.38;5035498;28;20057;-79
2023/01/22 06:23:50;;;;;;;14.18;10.65;;;;;;;2.62;76.32;101271.16;5035441;28;20569;-79
2023/01/22 06:26:17;;;;;;;13.63;9.35;;;;;;;2.62;76.37;101265.06;5017940;28;20061;-79
2023/01/22 06:28:43;;;;;;;15.52;9.85;;;;;;;2.62;76.33;101270.25;5035231;28;20049;-79
2023/01/22 06:31:10;;;;;;;13.25;10.10;;;;;;;2.60;76.42;101268.53;5035241;28;20065;-79
2023/01/22 06:33:37;;;;;;;13.60;10.63;;;;;;;2.63;76.23;101267.66;5035379;28;20085;-79
2023/01/22 06:36:04;;;;;;;11.85;9.68;;;;;;;2.64;76.37;101266.81;5035235;28;20132;-79
2023/01/22 06:38:30;;;;;;;13.88;10.07;;;;;;;2.64;75.86;101269.41;5031936;28;20050;-79
2023/01/22 06:40:58;;;;;;;15.25;10.25;;;;;;;2.66;76.47;101275.47;5032444;28;20065;-79
2023/01/22 06:43:26;;;;;;;10.80;9.48;;;;;;;2.66;76.49;101272.88;5031990;28;20092;-79
2023/01/22 06:45:53;;;;;;;12.82;10.05;;;;;;;2.66;76.28;101272.00;5032015;28;20065;-79
2023/01/22 06:48:20;;;;;;;18.27;10.32;;;;;;;2.68;76.30;101271.13;5031920;28;20061;-80
2023/01/22 06:50:46;;;;;;;13.95;9.65;;;;;;;2.70;76.46;101265.94;5031621;28;20054;-79
2023/01/22 06:53:13;;;;;;;16.30;11.25;;;;;;;2.68;76.46;101271.13;5032094;28;20148;-79
2023/01/22 06:55:39;;;;;;;13.80;10.18;;;;;;;2.72;76.17;101277.19;5031749;28;20092;-79
2023/01/22 06:58:06;;;;;;;13.75;10.38;;;;;;;2.72;76.39;101282.41;5031565;28;20080;-79
2023/01/22 07:00:32;;;;;;;13.02;9.70;;;;;;;2.72;76.63;101280.66;5031819;28;20053;-81
2023/01/22 07:02:59;;;;;;;15.80;10.68;;;;;;;2.73;76.59;101281.56;5004784;28;20057;-80
2023/01/22 07:05:26;;;;;;;15.85;11.20;;;;;;;2.74;76.39;101291.06;5023832;28;20060;-80
2023/01/22 07:07:53;;;;;;;16.90;11.13;;;;;;;2.74;76.25;101286.72;5031369;28;20132;-79
2023/01/22 07:10:20;;;;;;;14.52;11.40;;;;;;;2.75;76.48;101298.00;5031675;28;20127;-80
2023/01/22 07:12:48;;;;;;;16.40;11.65;;;;;;;2.74;75.93;101302.31;5030664;28;20119;-79
2023/01/22 07:15:15;;;;;;;15.98;11.25;;;;;;;2.73;76.18;101303.19;5025693;28;20686;-79
2023/01/22 07:17:41;;;;;;;15.85;11.20;;;;;;;2.74;76.31;101306.69;5029579;28;20135;-80
2023/01/22 07:20:08;;;;;;;14.23;11.48;;;;;;;2.73;76.29;101304.94;5026342;28;20466;-79
2023/01/22 07:22:35;;;;;;;17.10;11.63;;;;;;;2.72;76.40;101305.78;5029715;28;20080;-79
2023/01/22 07:25:01;;;;;;;14.98;12.13;;;;;;;2.72;75.76;101309.28;5020731;28;20053;-80
2023/01/22 07:27:31;;;;;;;16.10;11.73;;;;;;;2.71;76.37;101307.56;5013158;28;20064;-80
2023/01/22 07:29:57;;;;;;;17.15;11.68;;;;;;;2.71;76.16;101309.28;5013490;28;20111;-80
2023/01/22 07:32:23;;;;;;;15.25;11.98;;;;;;;2.70;76.16;101307.53;5013426;28;20482;-79
2023/01/22 07:34:50;;;;;;;14.25;11.20;;;;;;;2.70;76.41;101321.38;5031198;28;20147;-80
2023/01/22 07:37:16;;;;;;;14.48;11.05;;;;;;;2.69;76.18;101311.00;5031147;28;20065;-80
2023/01/22 07:39:43;;;;;;;16.42;11.95;;;;;;;2.70;76.48;101315.34;5031216;28;20057;-79
2023/01/22 07:42:11;;;;;;;15.88;11.43;;;;;;;2.69;76.33;101314.47;5028420;28;20092;-80
2023/01/22 07:44:40;;;;;;;14.20;11.10;;;;;;;2.70;76.40;101311.00;5030701;28;20211;-79
2023/01/22 07:47:07;;;;;;;16.52;11.75;;;;;;;2.70;76.56;101316.19;5030581;28;20057;-79
2023/01/22 07:49:34;;;;;;;17.13;12.18;;;;;;;2.71;76.06;101317.94;5030336;28;20466;-80
2023/01/22 07:52:00;;;;;;;15.18;11.60;;;;;;;2.72;76.37;101324.00;5031062;28;20053;-80
2023/01/22 07:54:27;;;;;;;14.48;12.10;;;;;;;2.71;75.98;101322.28;5030697;28;20569;-79
2023/01/22 07:56:53;;;;;;;17.02;12.32;;;;;;;2.71;76.24;101328.34;5013062;28;20057;-80
2023/01/22 07:59:19;;;;;;;17.30;12.38;;;;;;;2.70;76.65;101329.19;5030420;28;20146;-80
2023/01/22 08:01:46;;;;;;;17.15;12.57;;;;;;;2.70;76.46;101330.94;5030549;28;20061;-80
2023/01/22 08:04:12;;;;;;;15.63;12.43;;;;;;;2.68;75.95;101338.75;5030827;28;20064;-80
2023/01/22 08:06:39;;;;;;;16.65;12.27;;;;;;;2.69;76.09;101339.63;5030563;28;20111;-80
2023/01/22 08:09:05;;;;;;;16.17;12.43;;;;;;;2.67;76.31;101342.22;5030634;28;20764;-80
2023/01/22 08:11:31;;;;;;;19.40;13.13;;;;;;;2.69;76.02;101350.03;5030424;28;20376;-80
2023/01/22 08:13:58;;;;;;;16.23;12.20;;;;;;;2.69;76.51;101355.22;5028192;28;20050;-79
2023/01/22 08:16:24;;;;;;;18.13;12.63;;;;;;;2.69;76.51;101357.81;5030229;28;20049;-80
2023/01/22 08:18:51;;;;;;;18.50;11.90;;;;;;;2.70;76.32;101351.75;5009929;28;20069;-80
2023/01/22 08:21:17;;;;;;;15.07;11.73;;;;;;;2.71;76.40;101359.56;5025191;28;21577;-79
2023/01/22 08:23:43;;;;;;;16.05;12.68;;;;;;;2.71;76.76;101359.56;5029558;28;20057;-79
2023/01/22 08:26:14;;;;;;;15.63;12.13;;;;;;;2.73;76.83;101351.75;5029949;28;20146;-79
2023/01/22 08:28:40;;;;;;;16.67;12.50;;;;;;;2.73;76.07;101354.34;5029935;28;20104;-79
2023/01/22 08:31:07;;;;;;;19.20;12.38;;;;;;;2.73;75.93;101357.81;5030249;28;20099;-79
2023/01/22 08:33:48;;;;;;;18.13;12.38;;;;;;;2.74;76.18;101349.13;5030340;28;20053;-79
2023/01/22 08:36:14;;;;;;;19.42;12.38;;;;;;;2.76;76.35;101353.50;5030160;28;20093;-79
2023/01/22 08:38:40;;;;;;;17.67;12.45;;;;;;;2.73;76.59;101352.59;5025061;28;20165;-79
2023/01/22 08:41:07;;;;;;;15.80;12.52;;;;;;;2.74;76.25;101356.94;5008031;28;20092;-79
2023/01/22 08:43:33;;;;;;;17.73;12.73;;;;;;;2.76;76.74;101363.91;5024417;28;20060;-79
2023/01/22 08:45:59;;;;;;;20.27;12.85;;;;;;;2.77;76.49;101358.69;5029450;28;20061;-79
2023/01/22 08:48:26;;;;;;;14.88;11.55;;;;;;;2.78;76.69;101362.16;5029764;28;20055;-79
2023/01/22 08:50:52;;;;;;;19.02;12.45;;;;;;;2.79;76.35;101356.97;5029591;28;20111;-79
2023/01/22 08:53:19;;;;;;;15.93;12.05;;;;;;;2.79;76.03;101356.97;5029558;28;20053;-79
2023/01/22 08:55:48;;;;;;;15.10;11.75;;;;;;;2.80;76.30;101365.63;5029073;28;20064;-79
2023/01/22 08:58:15;;;;;;;17.55;12.40;;;;;;;2.82;76.71;101367.38;5029540;28;20332;-79
2023/01/22 09:00:43;;;;;;;18.70;12.68;;;;;;;2.83;76.33;101365.63;5011620;28;20084;-79
2023/01/22 09:03:09;;;;;;;14.00;10.70;;;;;;;2.83;76.64;101369.09;5011509;28;20633;-79
2023/01/22 09:05:38;;;;;;;15.30;12.13;;;;;;;2.85;76.07;101379.50;5029384;28;20157;-79
2023/01/22 09:08:05;;;;;;;17.15;11.75;;;;;;;2.87;76.19;101369.97;5029053;28;20466;-79
2023/01/22 09:10:31;;;;;;;15.18;11.73;;;;;;;2.86;76.53;101373.44;5029410;28;20115;-79
2023/01/22 09:12:59;;;;;;;15.88;11.40;;;;;;;2.89;76.06;101372.56;5028905;28;20504;-79
2023/01/22 09:15:26;;;;;;;18.95;12.35;;;;;;;2.90;76.68;101375.19;5029226;28;20061;-80
2023/01/22 09:17:52;;;;;;;17.27;11.48;;;;;;;2.91;76.73;101376.91;5029164;28;20108;-79
2023/01/22 09:20:19;;;;;;;16.92;12.10;;;;;;;2.92;76.43;101376.03;5011914;28;20107;-79
2023/01/22 09:22:47;;;;;;;15.48;12.15;;;;;;;2.94;76.90;101382.13;5028928;28;20115;-79
2023/01/22 09:25:15;;;;;;;16.48;12.05;;;;;;;2.95;76.35;101378.63;5028942;28;20103;-79
2023/01/22 09:27:41;;;;;;;16.95;11.80;;;;;;;2.98;76.29;101377.78;5029230;28;20061;-79
2023/01/22 09:30:08;;;;;;;16.98;12.18;;;;;;;2.98;76.62;101367.38;5029181;28;20119;-79
2023/01/22 09:32:35;;;;;;;17.15;12.18;;;;;;;3.00;76.79;101370.84;5029127;28;20053;-79
2023/01/22 09:35:02;;;;;;;15.68;11.90;;;;;;;3.02;76.43;101378.66;5028793;28;20064;-79
2023/01/22 09:37:28;;;;;;;19.05;12.60;;;;;;;3.00;76.47;101371.69;5028904;28;20054;-79
2023/01/22 09:39:55;;;;;;;18.58;12.18;;;;;;;3.00;76.18;101370.84;5029200;28;20049;-79
2023/01/22 09:42:35;;;;;;;18.75;12.40;;;;;;;2.99;75.52;101377.78;5011135;28;20061;-79
2023/01/22 09:45:08;;;;;;;19.02;11.68;;;;;;;3.02;75.85;101374.31;5028950;28;20443;-79
2023/01/22 09:47:52;;;;;;;18.83;12.68;;;;;;;3.01;75.73;101380.38;5029064;28;20053;-79
2023/01/22 09:50:31;;;;;;;18.05;12.23;;;;;;;2.99;75.01;101380.38;5029191;28;20115;-78
2023/01/22 09:53:02;;;;;;;16.85;12.20;;;;;;;3.02;75.86;101373.47;5029252;28;20107;-79
2023/01/22 09:55:32;;;;;;;17.77;12.13;;;;;;;3.01;75.96;101377.78;5028683;28;20563;-79
2023/01/22 09:58:04;;;;;;;23.75;13.95;;;;;;;3.02;76.29;101383.88;5028835;28;20049;-79
2023/01/22 10:00:56;;;;;;;21.58;12.32;;;;;;;2.98;75.32;101382.97;5029033;28;20066;-79
2023/01/22 10:03:33;;;;;;;19.05;12.55;;;;;;;3.00;75.75;101387.31;5028891;28;20057;-79
2023/01/22 10:06:05;;;;;;;17.02;12.48;;;;;;;2.99;76.33;101382.97;5028605;28;20057;-79
2023/01/22 10:08:37;;;;;;;17.98;11.75;;;;;;;3.02;76.36;101381.25;5028845;28;20061;-79
2023/01/22 10:13:33;;;;;;;21.90;13.13;;;;;;;3.00;76.32;101376.91;5029204;28;20057;-82
2023/01/22 10:16:00;;;;;;;19.73;12.73;;;;;;;3.04;76.59;101374.31;5032992;28;20085;-82
2023/01/22 10:18:38;;;;;;;21.13;12.82;;;;;;;3.05;76.67;101376.03;5033263;28;20053;-82
2023/01/22 10:21:29;;;;;;;17.85;12.18;;;;;;;3.02;75.88;101369.09;5033582;28;20058;-83
2023/01/22 10:23:57;;;;;;;18.90;12.15;;;;;;;3.08;76.39;101376.94;5018637;28;20065;-83
2023/01/22 10:26:28;;;;;;;18.58;12.73;;;;;;;3.07;76.19;101369.97;5033085;28;20500;-83
2023/01/22 10:28:57;;;;;;;17.17;13.07;;;;;;;3.08;76.19;101363.91;5032876;28;20057;-83
2023/01/22 10:31:30;;;;;;;22.00;12.07;;;;;;;3.09;76.32;101359.56;5033147;28;20356;-83
2023/01/22 10:33:59;;;;;;;19.33;11.70;;;;;;;3.10;76.05;101363.94;5014936;28;20049;-83
2023/01/22 10:36:27;;;;;;;17.27;11.55;;;;;;;3.10;76.24;101367.38;5033167;28;20069;-83
2023/01/22 10:39:08;;;;;;;18.05;13.00;;;;;;;3.08;75.46;101369.13;5015363;28;20079;-82
2023/01/22 10:41:35;;;;;;;16.25;11.63;;;;;;;3.11;76.27;101363.06;5015343;28;20060;-83
2023/01/22 10:44:15;;;;;;;21.88;12.77;;;;;;;3.09;75.88;101363.03;5014632;28;20060;-83
2023/01/22 10:46:42;;;;;;;23.40;13.38;;;;;;;3.15;76.27;101370.00;5032557;28;20057;-83
2023/01/22 10:49:24;;;;;;;18.58;12.88;;;;;;;3.15;75.67;101374.31;5015181;28;20064;-83
2023/01/22 10:51:52;;;;;;;22.88;12.93;;;;;;;3.17;76.28;101373.44;5015219;28;20315;-82
2023/01/22 10:54:42;;;;;;;21.08;13.35;;;;;;;3.15;75.40;101358.72;5032199;28;20111;-81
2023/01/22 10:57:26;;;;;;;21.23;12.57;;;;;;;3.17;75.72;101357.00;5032735;28;20057;-82
2023/01/22 11:00:17;;;;;;;20.08;12.75;;;;;;;3.18;75.38;101358.72;5032678;28;20054;-82
2023/01/22 11:02:46;;;;;;;16.38;12.07;;;;;;;3.20;76.42;101357.84;5015121;28;20111;-82
2023/01/22 11:05:21;;;;;;;22.63;12.77;;;;;;;3.21;76.69;101346.56;5031893;28;20101;-82
2023/01/22 11:07:51;;;;;;;28.20;12.75;;;;;;;3.22;76.36;101355.25;5032358;28;20488;-82
2023/01/22 11:10:38;;;;;;;18.92;12.48;;;;;;;3.21;75.57;101349.16;5032737;28;20108;-83
2023/01/22 11:13:16;;;;;;;17.58;12.07;;;;;;;3.24;75.37;101341.34;5032275;28;20053;-82
2023/01/22 11:15:52;;;;;;;22.02;13.38;;;;;;;3.28;76.07;101346.56;5014293;28;20068;-82
2023/01/22 11:18:30;;;;;;;19.10;12.05;;;;;;;3.28;75.26;101343.97;5014419;28;20083;-82
2023/01/22 11:20:59;;;;;;;17.60;12.32;;;;;;;3.32;76.61;101350.91;5032759;28;20061;-83
2023/01/22 11:23:46;;;;;;;20.58;12.13;;;;;;;3.30;75.48;101352.63;5016098;28;20060;-83
2023/01/22 11:26:24;;;;;;;21.35;12.93;;;;;;;3.34;76.41;101347.44;5031708;28;20057;-82
2023/01/22 11:29:38;;;;;;;24.52;13.50;;;;;;;3.32;75.29;101354.34;5031709;28;20454;-83
2023/01/22 11:32:05;;;;;;;;;;;;;;;3.38;74.86;101350.88;5032117;28;20520;-82
2023/01/22 11:34:56;;;;;;;16.08;10.85;;;;;;;3.39;75.33;101358.69;5031514;28;20418;-83
2023/01/22 11:37:42;;;;;;;18.23;12.07;;;;;;;3.38;75.69;101356.97;5031499;28;20438;-83